createdAt,value
2018-09-11T00:02:27.388Z,3.20
2018-09-11T00:04:55.657Z,3.30
2018-09-11T00:07:23.937Z,3.57
2018-09-11T00:09:52.186Z,3.37
2018-09-11T00:12:20.403Z,3.27
2018-09-11T00:14:48.675Z,2.87
2018-09-11T00:17:17.109Z,3.33
2018-09-11T00:19:45.438Z,3.20
2018-09-11T00:22:13.695Z,3.13
2018-09-11T00:24:41.967Z,3.80
2018-09-11T00:27:10.267Z,3.20
2018-09-11T00:29:38.549Z,3.50
2018-09-11T00:32:06.823Z,3.30
2018-09-11T00:34:35.076Z,3.60
2018-09-11T00:37:03.344Z,3.20
2018-09-11T00:39:31.695Z,3.40
2018-09-11T00:41:59.903Z,3.25
2018-09-11T00:44:28.210Z,3.30
2018-09-11T00:46:56.497Z,3.50
2018-09-11T00:49:24.752Z,3.70
2018-09-11T00:51:53.053Z,3.05
2018-09-11T00:54:21.303Z,3.30
2018-09-11T00:56:49.581Z,3.47
2018-09-11T00:59:17.859Z,3.33
2018-09-11T01:01:46.115Z,3.20
2018-09-11T01:04:14.366Z,3.30
2018-09-11T01:06:42.698Z,2.95
2018-09-11T01:09:11.422Z,3.67
2018-09-11T01:11:39.655Z,3.80
2018-09-11T01:14:08.036Z,3.77
2018-09-11T01:16:36.295Z,3.92
2018-09-11T01:19:04.583Z,3.93
2018-09-11T01:21:32.863Z,4.00
2018-09-11T01:24:01.742Z,4.00
2018-09-11T01:26:30.029Z,3.83
2018-09-11T01:28:58.306Z,3.70
2018-09-11T01:31:26.575Z,3.33
2018-09-11T01:33:54.948Z,3.60
2018-09-11T01:38:49.355Z,3.50
2018-09-11T01:41:17.634Z,3.37
2018-09-11T01:43:45.896Z,3.60
2018-09-11T01:46:14.190Z,3.80
2018-09-11T01:48:42.983Z,4.10
2018-09-11T01:51:11.248Z,4.60
2018-09-11T01:53:39.505Z,3.80
2018-09-11T01:56:07.852Z,4.92
2018-09-11T01:58:36.170Z,4.47
2018-09-11T02:01:04.424Z,4.30
2018-09-11T02:03:32.632Z,4.50
2018-09-11T02:06:00.913Z,4.10
2018-09-11T02:08:29.184Z,4.40
2018-09-11T02:10:57.466Z,4.10
2018-09-11T02:13:25.741Z,4.30
2018-09-11T02:15:53.990Z,4.57
2018-09-11T02:18:22.339Z,5.28
2018-09-11T02:20:50.624Z,5.43
2018-09-11T02:23:18.944Z,4.20
2018-09-11T02:25:47.243Z,4.50
2018-09-11T02:28:15.502Z,4.40
2018-09-11T02:30:43.779Z,4.33
2018-09-11T02:33:12.035Z,4.78
2018-09-11T02:35:40.350Z,4.23
2018-09-11T02:38:08.574Z,4.67
2018-09-11T02:40:36.842Z,4.95
2018-09-11T02:43:05.124Z,4.93
2018-09-11T02:45:33.400Z,5.17
2018-09-11T02:48:01.672Z,5.65
2018-09-11T02:50:29.902Z,5.77
2018-09-11T02:52:58.126Z,5.50
2018-09-11T02:55:26.431Z,4.70
2018-09-11T02:57:54.709Z,4.97
2018-09-11T03:00:22.968Z,4.33
2018-09-11T03:02:51.762Z,3.92
2018-09-11T03:05:20.047Z,5.20
2018-09-11T03:07:48.301Z,5.50
2018-09-11T03:10:16.569Z,5.33
2018-09-11T03:12:44.865Z,5.43
2018-09-11T03:15:13.140Z,5.60
2018-09-11T03:17:41.409Z,4.97
2018-09-11T03:20:09.707Z,4.70
2018-09-11T03:22:38.376Z,4.80
2018-09-11T03:25:06.704Z,5.03
2018-09-11T03:27:35.108Z,5.35
2018-09-11T03:30:03.535Z,5.57
2018-09-11T03:32:31.836Z,5.00
2018-09-11T03:35:00.166Z,5.10
2018-09-11T03:37:28.459Z,4.53
2018-09-11T03:39:56.792Z,4.57
2018-09-11T03:42:25.086Z,4.70
2018-09-11T03:44:53.376Z,5.33
2018-09-11T03:47:22.290Z,4.33
2018-09-11T03:49:50.560Z,5.10
2018-09-11T03:52:18.824Z,4.13
2018-09-11T03:54:47.089Z,5.35
2018-09-11T03:57:15.384Z,6.00
2018-09-11T03:59:43.648Z,6.23
2018-09-11T04:02:11.930Z,6.08
2018-09-11T04:04:40.204Z,6.60
2018-09-11T04:07:08.480Z,5.93
2018-09-11T04:09:36.773Z,5.87
2018-09-11T04:12:05.060Z,5.30
2018-09-11T04:14:33.326Z,5.90
2018-09-11T04:17:01.588Z,5.72
2018-09-11T04:19:29.884Z,5.17
2018-09-11T04:21:58.136Z,5.00
2018-09-11T04:24:26.499Z,4.87
2018-09-11T04:26:54.965Z,5.43
2018-09-11T04:29:23.237Z,11.25
2018-09-11T04:31:51.627Z,18.57
2018-09-11T04:34:20.652Z,9.87
2018-09-11T04:36:48.920Z,9.23
2018-09-11T04:39:17.229Z,8.70
2018-09-11T04:41:45.491Z,7.33
2018-09-11T04:44:13.750Z,6.00
2018-09-11T04:46:42.059Z,6.73
2018-09-11T04:49:10.311Z,7.50
2018-09-11T04:51:38.629Z,7.60
2018-09-11T04:54:06.922Z,7.60
2018-09-11T04:56:35.155Z,7.42
2018-09-11T04:59:03.424Z,7.13
2018-09-11T05:01:31.726Z,7.73
2018-09-11T05:04:00.044Z,6.58
2018-09-11T05:06:28.352Z,7.63
2018-09-11T05:08:56.754Z,8.00
2018-09-11T05:11:25.208Z,7.93
2018-09-11T05:13:53.494Z,6.90
2018-09-11T05:16:21.829Z,7.17
2018-09-11T05:18:50.099Z,6.87
2018-09-11T05:21:18.374Z,7.03
2018-09-11T05:23:46.602Z,6.40
2018-09-11T05:26:14.893Z,6.23
2018-09-11T05:28:43.214Z,6.03
2018-09-11T05:31:11.655Z,6.53
2018-09-11T05:33:40.070Z,6.05
2018-09-11T05:36:08.385Z,5.70
2018-09-11T05:38:36.647Z,6.07
2018-09-11T05:41:04.973Z,5.93
2018-09-11T05:43:33.313Z,5.90
2018-09-11T05:46:01.784Z,5.45
2018-09-11T05:48:30.224Z,5.60
2018-09-11T05:50:58.616Z,6.25
2018-09-11T05:53:26.929Z,6.10
2018-09-11T05:55:55.309Z,6.03
2018-09-11T05:58:23.661Z,6.20
2018-09-11T06:00:52.107Z,6.37
2018-09-11T06:03:20.556Z,6.67
2018-09-11T06:05:48.954Z,5.72
2018-09-11T06:08:17.231Z,6.17
2018-09-11T06:10:45.612Z,5.47
2018-09-11T06:13:13.992Z,4.90
2018-09-11T06:15:42.369Z,5.03
2018-09-11T06:18:10.853Z,4.87
2018-09-11T06:20:42.804Z,5.60
2018-09-11T06:23:11.134Z,5.73
2018-09-11T06:25:39.608Z,5.40
2018-09-11T06:28:11.141Z,5.50
2018-09-11T06:30:39.805Z,5.47
2018-09-11T06:33:08.100Z,5.45
2018-09-11T06:35:36.512Z,5.50
2018-09-11T06:38:04.963Z,5.50
2018-09-11T06:40:33.417Z,5.03
2018-09-11T06:45:35.382Z,5.37
2018-09-11T06:48:03.839Z,4.55
2018-09-11T06:50:32.155Z,5.10
2018-09-11T06:53:01.245Z,5.08
2018-09-11T06:55:29.569Z,5.07
2018-09-11T06:57:57.896Z,4.60
2018-09-11T07:00:26.392Z,4.93
2018-09-11T07:02:54.926Z,5.27
2018-09-11T07:05:23.235Z,4.70
2018-09-11T07:07:51.515Z,4.30
2018-09-11T07:10:19.742Z,5.12
2018-09-11T07:12:47.975Z,5.27
2018-09-11T07:15:16.313Z,4.87
2018-09-11T07:17:44.602Z,4.80
2018-09-11T07:20:13.181Z,4.50
2018-09-11T07:22:41.155Z,5.03
2018-09-11T07:25:09.555Z,4.90
2018-09-11T07:27:37.833Z,4.57
2018-09-11T07:30:06.211Z,4.87
2018-09-11T07:32:34.657Z,4.30
2018-09-11T07:35:06.481Z,4.43
2018-09-11T07:37:34.818Z,3.90
2018-09-11T07:40:03.120Z,4.00
2018-09-11T07:42:31.472Z,3.67
2018-09-11T07:44:59.752Z,5.30
2018-09-11T07:47:28.031Z,3.70
2018-09-11T07:49:56.308Z,3.67
2018-09-11T07:52:24.648Z,3.50
2018-09-11T07:54:52.837Z,3.33
2018-09-11T07:57:21.073Z,3.20
2018-09-11T07:59:49.295Z,3.17
2018-09-11T08:02:17.589Z,3.50
2018-09-11T08:04:45.816Z,3.00
2018-09-11T08:07:14.024Z,2.87
2018-09-11T08:09:42.518Z,2.83
2018-09-11T08:12:10.641Z,3.05
2018-09-11T08:14:39.122Z,3.00
2018-09-11T08:17:07.432Z,3.00
2018-09-11T08:19:35.747Z,3.40
2018-09-11T08:22:03.946Z,3.90
2018-09-11T08:24:32.241Z,3.00
2018-09-11T08:27:00.593Z,2.70
2018-09-11T08:29:29.103Z,2.77
2018-09-11T08:31:57.375Z,3.30
2018-09-11T08:34:25.713Z,2.30
2018-09-11T08:36:54.106Z,2.80
2018-09-11T08:39:23.554Z,2.57
2018-09-11T08:41:53.552Z,3.10
2018-09-11T08:44:21.977Z,3.10
2018-09-11T08:46:50.654Z,3.10
2018-09-11T08:49:18.898Z,2.50
2018-09-11T08:51:47.302Z,2.87
2018-09-11T08:54:16.763Z,2.90
2018-09-11T08:56:45.329Z,2.57
2018-09-11T08:59:13.840Z,2.50
2018-09-11T09:01:42.522Z,2.90
2018-09-11T09:04:10.877Z,2.90
2018-09-11T09:06:39.306Z,2.50
2018-09-11T09:09:12.502Z,3.00
2018-09-11T09:11:41.308Z,2.40
2018-09-11T09:14:09.966Z,2.17
2018-09-11T09:16:39.295Z,2.47
2018-09-11T09:19:07.745Z,2.57
2018-09-11T09:21:36.039Z,2.30
2018-09-11T09:24:04.408Z,2.63
2018-09-11T09:26:32.728Z,2.20
2018-09-11T09:29:01.077Z,2.20
2018-09-11T09:31:29.456Z,2.47
2018-09-11T09:33:57.781Z,2.10
2018-09-11T09:36:26.226Z,2.13
2018-09-11T09:38:54.575Z,2.57
2018-09-11T09:41:23.053Z,2.50
2018-09-11T09:43:51.582Z,2.50
2018-09-11T09:46:19.914Z,2.25
2018-09-11T09:48:48.215Z,2.27
2018-09-11T09:51:16.570Z,1.90
2018-09-11T09:53:45.055Z,2.30
2018-09-11T09:56:13.359Z,2.20
2018-09-11T09:58:41.841Z,2.10
2018-09-11T10:01:15.524Z,1.85
2018-09-11T10:03:43.898Z,2.20
2018-09-11T10:06:12.317Z,2.10
2018-09-11T10:08:40.702Z,2.10
2018-09-11T10:11:08.980Z,1.80
2018-09-11T10:13:37.558Z,2.07
2018-09-11T10:16:10.124Z,2.23
2018-09-11T10:18:38.451Z,1.70
2018-09-11T10:21:07.412Z,1.90
2018-09-11T10:23:35.728Z,1.95
2018-09-11T10:26:15.669Z,2.10
2018-09-11T10:28:44.481Z,1.80
2018-09-11T10:31:17.483Z,1.63
2018-09-11T10:33:45.820Z,1.90
2018-09-11T10:36:14.159Z,1.80
2018-09-11T10:38:42.583Z,2.17
2018-09-11T10:41:10.819Z,1.93
2018-09-11T10:43:39.212Z,2.13
2018-09-11T10:46:07.717Z,1.92
2018-09-11T10:48:36.139Z,2.00
2018-09-11T10:51:04.471Z,2.17
2018-09-11T10:53:32.785Z,1.80
2018-09-11T10:56:01.075Z,1.93
2018-09-11T10:58:29.543Z,1.92
2018-09-11T11:00:57.783Z,1.90
2018-09-11T11:03:26.027Z,1.87
2018-09-11T11:05:54.453Z,2.00
2018-09-11T11:08:22.960Z,1.97
2018-09-11T11:10:51.228Z,1.80
2018-09-11T11:13:19.779Z,2.10
2018-09-11T11:15:48.281Z,1.87
2018-09-11T11:18:16.671Z,2.23
2018-09-11T11:20:45.126Z,2.05
2018-09-11T11:23:13.365Z,1.90
2018-09-11T11:25:41.630Z,2.23
2018-09-11T11:28:10.001Z,2.00
2018-09-11T11:30:38.364Z,2.02
2018-09-11T11:36:04.225Z,1.93
2018-09-11T11:38:32.511Z,2.20
2018-09-11T11:41:00.887Z,1.95
2018-09-11T11:43:29.236Z,1.73
2018-09-11T11:45:57.547Z,2.20
2018-09-11T11:48:25.777Z,1.90
2018-09-11T11:50:54.059Z,2.20
2018-09-11T11:53:22.348Z,1.77
2018-09-11T11:55:50.662Z,2.10
2018-09-11T11:58:19.959Z,2.00
2018-09-11T12:00:48.254Z,1.98
2018-09-11T12:03:16.670Z,1.80
2018-09-11T12:05:44.973Z,2.42
2018-09-11T12:08:13.352Z,2.13
2018-09-11T12:10:42.034Z,1.90
2018-09-11T12:13:10.407Z,2.23
2018-09-11T12:15:38.698Z,2.30
2018-09-11T12:18:07.047Z,2.30
2018-09-11T12:20:35.617Z,1.77
2018-09-11T12:23:04.039Z,2.10
2018-09-11T12:25:32.362Z,2.02
2018-09-11T12:28:00.645Z,2.23
2018-09-11T12:30:28.845Z,2.60
2018-09-11T12:32:57.037Z,2.30
2018-09-11T12:35:25.315Z,1.97
2018-09-11T12:37:53.618Z,2.07
2018-09-11T12:40:21.939Z,2.40
2018-09-11T12:42:50.200Z,2.17
2018-09-11T12:45:18.568Z,2.27
2018-09-11T12:47:47.190Z,1.92
2018-09-11T12:50:16.111Z,2.50
2018-09-11T12:52:44.544Z,2.47
2018-09-11T12:55:13.025Z,2.40
2018-09-11T12:57:48.455Z,2.83
2018-09-11T13:00:17.789Z,2.03
2018-09-11T13:02:46.062Z,2.10
2018-09-11T13:05:14.319Z,2.20
2018-09-11T13:07:43.228Z,2.27
2018-09-11T13:10:11.908Z,2.27
2018-09-11T13:12:40.186Z,2.12
2018-09-11T13:15:08.668Z,2.43
2018-09-11T13:17:36.928Z,2.40
2018-09-11T13:20:05.234Z,2.20
2018-09-11T13:22:33.580Z,2.33
2018-09-11T13:25:01.955Z,2.37
2018-09-11T13:27:30.277Z,2.27
2018-09-11T13:29:58.524Z,2.10
2018-09-11T13:32:26.802Z,2.33
2018-09-11T13:34:55.063Z,2.17
2018-09-11T13:37:23.361Z,1.90
2018-09-11T13:39:51.631Z,2.23
2018-09-11T13:42:19.892Z,2.40
2018-09-11T13:44:48.181Z,2.30
2018-09-11T13:47:16.574Z,2.30
2018-09-11T13:49:44.764Z,2.25
2018-09-11T13:52:13.128Z,2.00
2018-09-11T13:54:41.479Z,2.27
2018-09-11T13:57:09.822Z,2.50
2018-09-11T13:59:38.041Z,2.43
2018-09-11T14:02:06.270Z,2.03
2018-09-11T14:04:34.553Z,2.40
2018-09-11T14:07:02.877Z,2.00
2018-09-11T14:09:31.188Z,2.23
2018-09-11T14:11:59.456Z,2.43
2018-09-11T14:14:27.755Z,2.40
2018-09-11T14:16:56.132Z,2.30
2018-09-11T14:19:24.438Z,2.12
2018-09-11T14:21:52.795Z,2.67
2018-09-11T14:24:21.164Z,2.33
2018-09-11T14:26:49.588Z,2.13
2018-09-11T14:29:17.872Z,2.80
2018-09-11T14:31:46.346Z,2.53
2018-09-11T14:34:14.610Z,2.60
2018-09-11T14:36:42.934Z,2.43
2018-09-11T14:39:11.847Z,2.30
2018-09-11T14:41:40.440Z,2.77
2018-09-11T14:44:08.714Z,2.40
2018-09-11T14:46:37.125Z,2.40
2018-09-11T14:49:05.727Z,2.50
2018-09-11T14:51:33.991Z,2.20
2018-09-11T14:54:02.409Z,2.30
2018-09-11T14:56:30.630Z,2.50
2018-09-11T14:58:58.930Z,2.50
2018-09-11T15:01:27.269Z,2.50
2018-09-11T15:03:55.707Z,2.50
2018-09-11T15:06:24.056Z,2.57
2018-09-11T15:08:52.313Z,2.40
2018-09-11T15:11:20.607Z,2.42
2018-09-11T15:13:49.124Z,2.50
2018-09-11T15:16:17.486Z,2.40
2018-09-11T15:18:45.952Z,2.70
2018-09-11T15:21:14.375Z,2.37
2018-09-11T15:23:42.674Z,2.37
2018-09-11T15:26:10.966Z,2.33
2018-09-11T15:28:39.215Z,2.33
2018-09-11T15:31:07.562Z,2.60
2018-09-11T15:33:35.982Z,2.40
2018-09-11T15:36:04.325Z,2.77
2018-09-11T15:38:32.605Z,2.20
2018-09-11T15:41:00.834Z,2.43
2018-09-11T15:43:29.229Z,2.40
2018-09-11T15:45:57.601Z,2.50
2018-09-11T15:48:25.838Z,2.23
2018-09-11T15:50:54.114Z,2.27
2018-09-11T15:53:22.354Z,2.20
2018-09-11T15:55:50.727Z,2.60
2018-09-11T15:58:18.905Z,2.57
2018-09-11T16:00:47.225Z,2.50
2018-09-11T16:03:15.587Z,2.20
2018-09-11T16:05:48.181Z,2.40
2018-09-11T16:08:16.658Z,3.17
2018-09-11T16:10:44.925Z,2.40
2018-09-11T16:13:13.279Z,2.60
2018-09-11T16:15:41.665Z,2.67
2018-09-11T16:18:09.981Z,2.52
2018-09-11T16:20:38.439Z,2.57
2018-09-11T16:23:06.851Z,2.70
2018-09-11T16:25:35.136Z,2.20
2018-09-11T16:28:03.422Z,2.43
2018-09-11T16:30:31.721Z,2.00
2018-09-11T16:33:00.096Z,2.20
2018-09-11T16:35:28.349Z,2.65
2018-09-11T16:38:00.276Z,2.27
2018-09-11T16:40:28.532Z,2.40
2018-09-11T16:42:57.277Z,2.23
2018-09-11T16:45:25.593Z,2.50
2018-09-11T16:47:53.964Z,2.37
2018-09-11T16:50:22.334Z,2.60
2018-09-11T16:52:50.736Z,2.70
2018-09-11T16:55:19.091Z,2.50
2018-09-11T16:57:47.405Z,2.40
2018-09-11T17:00:15.748Z,3.00
2018-09-11T17:02:44.065Z,2.60
2018-09-11T17:05:12.513Z,2.27
2018-09-11T17:07:40.976Z,2.17
2018-09-11T17:10:09.360Z,2.80
2018-09-11T17:12:37.822Z,2.40
2018-09-11T17:15:06.167Z,2.37
2018-09-11T17:17:34.705Z,2.52
2018-09-11T17:20:03.084Z,4.23
2018-09-11T17:22:31.895Z,2.27
2018-09-11T17:25:00.671Z,2.60
2018-09-11T17:27:29.079Z,2.53
2018-09-11T17:29:57.659Z,2.30
2018-09-11T17:40:30.843Z,2.40
2018-09-11T17:43:04.791Z,2.20
2018-09-11T17:45:35.528Z,2.20
2018-09-11T17:48:04.667Z,2.30
2018-09-11T17:50:33.428Z,2.20
2018-09-11T17:53:02.039Z,2.40
2018-09-11T17:55:30.559Z,2.20
2018-09-11T17:57:59.132Z,2.40
2018-09-11T18:00:27.726Z,2.27
2018-09-11T18:02:56.381Z,2.80
2018-09-11T18:05:25.005Z,2.52
2018-09-11T18:07:53.930Z,2.65
2018-09-11T18:10:22.745Z,2.42
2018-09-11T18:12:51.320Z,2.20
2018-09-11T18:15:20.486Z,2.70
2018-09-11T18:17:49.049Z,2.37
2018-09-11T18:20:17.828Z,2.50
2018-09-11T18:22:49.447Z,2.50
2018-09-11T18:25:18.058Z,2.40
2018-09-11T18:27:49.275Z,2.65
2018-09-11T18:30:21.140Z,2.43
2018-09-11T18:32:49.932Z,2.43
2018-09-11T18:35:18.746Z,2.52
2018-09-11T18:37:51.135Z,2.10
2018-09-11T18:40:35.191Z,2.70
2018-09-11T18:43:07.055Z,2.40
2018-09-11T18:45:36.745Z,2.77
2018-09-11T18:48:06.810Z,2.37
2018-09-11T18:50:37.781Z,2.67
2018-09-11T18:53:08.622Z,2.37
2018-09-11T18:55:37.669Z,2.60
2018-09-11T18:58:08.952Z,2.40
2018-09-11T19:00:42.221Z,2.20
2018-09-11T19:03:10.997Z,2.40
2018-09-11T19:05:39.960Z,2.72
2018-09-11T19:08:11.111Z,2.70
2018-09-11T19:10:48.364Z,2.70
2018-09-11T19:13:42.381Z,2.80
2018-09-11T19:19:15.314Z,2.40
2018-09-11T19:21:47.633Z,2.80
2018-09-11T19:24:16.101Z,2.30
2018-09-11T19:26:44.640Z,2.62
2018-09-11T19:29:13.250Z,2.67
2018-09-11T19:31:41.970Z,2.40
2018-09-11T19:34:10.846Z,2.35
2018-09-11T19:36:39.379Z,2.50
2018-09-11T19:39:26.153Z,2.50
2018-09-11T19:42:07.585Z,2.53
2018-09-11T19:47:20.232Z,2.30
2018-09-11T19:49:49.139Z,2.42
2018-09-11T19:52:17.945Z,3.02
2018-09-11T19:54:47.196Z,2.87
2018-09-11T19:57:16.059Z,2.90
2018-09-11T19:59:44.866Z,3.07
2018-09-11T20:02:13.661Z,3.27
2018-09-11T20:04:42.416Z,2.95
2018-09-11T20:07:11.229Z,2.98
2018-09-11T20:09:40.014Z,3.00
2018-09-11T20:12:08.828Z,2.80
2018-09-11T20:14:37.449Z,2.70
2018-09-11T20:17:06.236Z,3.00
2018-09-11T20:19:34.883Z,2.93
2018-09-11T20:22:03.411Z,3.00
2018-09-11T20:24:35.476Z,2.90
2018-09-11T20:27:04.104Z,3.23
2018-09-11T20:29:32.705Z,3.08
2018-09-11T20:32:01.277Z,3.43
2018-09-11T20:34:29.799Z,3.30
2018-09-11T20:36:58.358Z,3.67
2018-09-11T20:39:27.012Z,2.80
2018-09-11T20:41:55.584Z,2.80
2018-09-11T20:44:24.132Z,3.50
2018-09-11T20:46:52.700Z,3.10
2018-09-11T20:49:21.468Z,3.27
2018-09-11T20:51:50.202Z,2.90
2018-09-11T20:54:19.232Z,2.80
2018-09-11T20:56:47.831Z,3.03
2018-09-11T20:59:16.539Z,2.87
2018-09-11T21:01:45.620Z,3.07
2018-09-11T21:04:17.273Z,3.95
2018-09-11T21:06:46.032Z,2.90
2018-09-11T21:09:14.679Z,3.00
2018-09-11T21:11:43.263Z,3.12
2018-09-11T21:14:11.874Z,3.20
2018-09-11T21:16:40.489Z,3.20
2018-09-11T21:19:09.128Z,2.72
2018-09-11T21:21:37.777Z,3.10
2018-09-11T21:24:06.384Z,3.08
2018-09-11T21:26:35.027Z,3.08
2018-09-11T21:29:03.547Z,3.03
2018-09-11T21:31:32.150Z,2.80
2018-09-11T21:34:00.810Z,2.70
2018-09-11T21:36:29.238Z,2.90
2018-09-11T21:38:57.909Z,2.93
2018-09-11T21:41:26.516Z,3.03
2018-09-11T21:43:55.074Z,2.95
2018-09-11T21:46:23.776Z,3.23
2018-09-11T21:48:52.414Z,2.80
2018-09-11T21:51:21.261Z,3.00
2018-09-11T21:53:49.961Z,3.20
2018-09-11T21:56:18.630Z,3.03
2018-09-11T21:58:47.436Z,2.93
2018-09-11T22:01:21.615Z,3.00
2018-09-11T22:03:50.393Z,3.20
2018-09-11T22:06:19.141Z,2.97
2018-09-11T22:08:47.990Z,3.00
2018-09-11T22:11:17.137Z,2.90
2018-09-11T22:13:45.789Z,3.07
2018-09-11T22:16:14.585Z,3.33
2018-09-11T22:18:43.404Z,2.75
2018-09-11T22:21:12.361Z,3.00
2018-09-11T22:23:41.764Z,3.07
2018-09-11T22:26:10.569Z,2.80
2018-09-11T22:28:39.324Z,3.12
2018-09-11T22:31:08.160Z,2.70
2018-09-11T22:33:37.847Z,2.92
2018-09-11T22:36:06.580Z,3.00
2018-09-11T22:38:35.176Z,3.00
2018-09-11T22:41:03.892Z,2.95
2018-09-11T22:43:32.637Z,3.20
2018-09-11T22:46:01.365Z,2.80
2018-09-11T22:48:30.022Z,2.87
2018-09-11T22:50:58.691Z,3.40
2018-09-11T22:53:27.464Z,3.43
2018-09-11T22:55:56.102Z,3.10
2018-09-11T22:58:24.780Z,2.98
2018-09-11T23:00:53.507Z,2.77
2018-09-11T23:03:22.178Z,2.70
2018-09-11T23:05:50.808Z,2.90
2018-09-11T23:08:19.542Z,2.80
2018-09-11T23:10:48.229Z,2.93
2018-09-11T23:13:16.799Z,3.37
2018-09-11T23:15:45.433Z,3.00
2018-09-11T23:18:14.068Z,3.00
2018-09-11T23:20:42.909Z,3.30
2018-09-11T23:23:11.590Z,3.37
2018-09-11T23:25:40.261Z,3.53
2018-09-11T23:28:10.089Z,3.47
2018-09-11T23:30:38.781Z,3.03
2018-09-11T23:33:07.383Z,3.22
2018-09-11T23:35:36.741Z,3.55
2018-09-11T23:38:05.395Z,3.60
2018-09-11T23:40:34.054Z,3.40
2018-09-11T23:43:02.735Z,3.07
2018-09-11T23:45:31.362Z,2.73
2018-09-11T23:48:00.211Z,2.97
2018-09-11T23:50:28.967Z,3.20
2018-09-11T23:52:57.691Z,3.43
2018-09-11T23:55:26.409Z,3.30
2018-09-11T23:57:55.235Z,3.00
